createdAt,value
2018-07-15T00:00:46.562Z,59.77
2018-07-15T00:03:15.098Z,60.83
2018-07-15T00:05:43.742Z,60.11
2018-07-15T00:08:12.451Z,59.68
2018-07-15T00:10:43.459Z,59.83
2018-07-15T00:13:12.540Z,60.44
2018-07-15T00:15:41.566Z,60.74
2018-07-15T00:18:10.063Z,64.06
2018-07-15T00:20:38.515Z,70.49
2018-07-15T00:23:07.643Z,76.88
2018-07-15T00:25:36.398Z,80.59
2018-07-15T00:28:05.044Z,83.08
2018-07-15T00:30:33.691Z,84.35
2018-07-15T00:33:02.307Z,87.54
2018-07-15T00:35:30.819Z,87.35
2018-07-15T00:37:59.423Z,87.12
2018-07-15T00:40:28.210Z,85.49
2018-07-15T00:42:57.046Z,87.11
2018-07-15T00:45:25.648Z,88.12
2018-07-15T00:47:54.232Z,91.20
2018-07-15T00:50:22.704Z,89.77
2018-07-15T00:52:51.196Z,88.55
2018-07-15T00:55:19.741Z,86.94
2018-07-15T00:57:48.203Z,89.52
2018-07-15T01:00:20.830Z,87.81
2018-07-15T01:02:49.334Z,86.60
2018-07-15T01:05:17.893Z,87.22
2018-07-15T01:07:46.346Z,85.51
2018-07-15T01:10:15.199Z,87.11
2018-07-15T01:12:43.743Z,87.43
2018-07-15T01:15:12.196Z,85.19
2018-07-15T01:17:40.815Z,86.67
2018-07-15T01:20:09.522Z,85.93
2018-07-15T01:22:39.306Z,84.71
2018-07-15T01:25:08.022Z,81.96
2018-07-15T01:27:36.550Z,81.60
2018-07-15T01:30:05.171Z,82.78
2018-07-15T01:32:33.842Z,82.94
2018-07-15T01:35:02.303Z,83.92
2018-07-15T01:37:30.903Z,83.43
2018-07-15T01:39:59.338Z,82.84
2018-07-15T01:42:28.022Z,81.31
2018-07-15T01:44:56.742Z,80.18
2018-07-15T01:47:25.704Z,79.37
2018-07-15T01:49:54.738Z,79.71
2018-07-15T01:52:23.368Z,79.00
2018-07-15T01:54:52.458Z,79.14
2018-07-15T02:03:03.956Z,78.84
2018-07-15T02:05:32.538Z,78.42
2018-07-15T02:08:00.991Z,78.96
2018-07-15T02:10:29.469Z,78.93
2018-07-15T02:12:57.981Z,79.93
2018-07-15T02:15:26.571Z,78.52
2018-07-15T02:17:55.054Z,79.25
2018-07-15T02:20:23.631Z,77.98
2018-07-15T02:22:52.198Z,79.05
2018-07-15T02:25:20.855Z,77.89
2018-07-15T02:27:49.362Z,77.05
2018-07-15T02:30:17.851Z,76.53
2018-07-15T02:32:46.318Z,76.55
2018-07-15T02:35:14.787Z,76.49
2018-07-15T02:37:43.323Z,77.28
2018-07-15T02:40:11.755Z,76.00
2018-07-15T02:42:40.705Z,75.32
2018-07-15T02:45:09.247Z,75.43
2018-07-15T02:47:37.816Z,75.14
2018-07-15T02:50:06.448Z,75.02
2018-07-15T02:52:35.288Z,74.51
2018-07-15T02:55:03.815Z,75.59
2018-07-15T02:57:32.342Z,75.36
2018-07-15T03:00:00.823Z,74.47
2018-07-15T03:02:29.272Z,74.56
2018-07-15T03:04:57.773Z,75.01
2018-07-15T03:07:26.327Z,74.61
2018-07-15T03:09:54.843Z,74.02
2018-07-15T03:12:23.356Z,74.29
2018-07-15T03:14:51.786Z,73.24
2018-07-15T03:17:20.666Z,72.98
2018-07-15T03:19:49.165Z,72.73
2018-07-15T03:22:17.820Z,72.26
2018-07-15T03:24:46.426Z,71.54
2018-07-15T03:27:15.019Z,72.78
2018-07-15T03:29:43.523Z,71.48
2018-07-15T03:32:12.007Z,71.64
2018-07-15T03:34:40.511Z,71.59
2018-07-15T03:37:08.935Z,71.80
2018-07-15T03:39:37.431Z,71.81
2018-07-15T03:42:06.178Z,71.79
2018-07-15T03:44:34.601Z,70.94
2018-07-15T03:47:03.071Z,70.49
2018-07-15T03:49:31.573Z,70.99
2018-07-15T03:52:00.038Z,70.48
2018-07-15T03:54:28.636Z,71.77
2018-07-15T03:56:57.077Z,72.52
2018-07-15T03:59:25.683Z,72.63
2018-07-15T04:01:54.174Z,71.49
2018-07-15T04:04:22.670Z,72.27
2018-07-15T04:06:51.186Z,71.33
2018-07-15T04:09:19.725Z,71.58
2018-07-15T04:11:48.272Z,72.19
2018-07-15T04:14:17.887Z,71.24
2018-07-15T04:16:46.699Z,73.49
2018-07-15T04:19:15.995Z,74.75
2018-07-15T04:21:44.695Z,74.41
2018-07-15T04:24:13.179Z,74.06
2018-07-15T04:26:41.738Z,72.50
2018-07-15T04:29:10.244Z,73.53
2018-07-15T04:31:38.841Z,76.80
2018-07-15T04:34:07.368Z,76.92
2018-07-15T04:36:35.899Z,77.20
2018-07-15T04:39:05.380Z,76.47
2018-07-15T04:41:33.871Z,76.42
2018-07-15T04:44:02.359Z,75.20
2018-07-15T04:46:30.839Z,75.31
2018-07-15T04:48:59.472Z,75.88
2018-07-15T04:51:28.188Z,76.26
2018-07-15T04:53:56.691Z,76.03
2018-07-15T04:56:25.308Z,75.57
2018-07-15T04:58:54.097Z,74.48
2018-07-15T05:01:22.718Z,74.55
2018-07-15T05:03:51.250Z,74.17
2018-07-15T05:06:19.763Z,73.51
2018-07-15T05:08:48.404Z,72.78
2018-07-15T05:11:16.926Z,71.75
2018-07-15T05:13:45.519Z,71.80
2018-07-15T05:16:14.103Z,71.69
2018-07-15T05:18:42.726Z,73.06
2018-07-15T05:21:11.254Z,71.43
2018-07-15T05:23:39.687Z,71.80
2018-07-15T05:26:08.286Z,71.18
2018-07-15T05:28:36.943Z,70.34
2018-07-15T05:31:05.774Z,71.27
2018-07-15T05:33:34.218Z,70.44
2018-07-15T05:36:06.713Z,70.82
2018-07-15T05:38:35.176Z,70.98
2018-07-15T05:41:03.760Z,69.98
2018-07-15T05:43:32.483Z,70.27
2018-07-15T05:46:00.962Z,70.93
2018-07-15T05:48:29.560Z,68.48
2018-07-15T05:50:58.127Z,68.56
2018-07-15T05:53:26.627Z,68.37
2018-07-15T05:55:55.098Z,69.39
2018-07-15T05:58:23.882Z,70.69
2018-07-15T06:00:52.434Z,69.76
2018-07-15T06:03:21.010Z,70.69
2018-07-15T06:05:49.438Z,68.83
2018-07-15T06:08:17.970Z,68.89
2018-07-15T06:10:46.692Z,68.42
2018-07-15T06:13:15.157Z,69.03
2018-07-15T06:15:43.823Z,69.22
2018-07-15T06:18:12.358Z,68.09
2018-07-15T06:20:40.972Z,68.43
2018-07-15T06:23:09.643Z,68.54
2018-07-15T06:25:38.179Z,68.59
2018-07-15T06:28:06.667Z,67.96
2018-07-15T06:30:35.162Z,68.03
2018-07-15T06:33:03.879Z,67.42
2018-07-15T06:35:32.594Z,65.97
2018-07-15T06:38:01.112Z,65.39
2018-07-15T06:40:29.718Z,63.82
2018-07-15T06:42:58.199Z,65.18
2018-07-15T06:45:26.798Z,64.97
2018-07-15T06:47:55.215Z,64.10
2018-07-15T06:50:23.738Z,63.66
2018-07-15T06:52:52.259Z,62.42
2018-07-15T06:55:20.906Z,62.22
2018-07-15T06:57:49.495Z,62.23
2018-07-15T07:00:18.007Z,62.15
2018-07-15T07:02:46.727Z,62.53
2018-07-15T07:05:15.824Z,61.72
2018-07-15T07:07:44.517Z,61.02
2018-07-15T07:10:12.937Z,61.27
2018-07-15T07:12:41.566Z,59.51
2018-07-15T07:15:10.119Z,59.55
2018-07-15T07:17:38.662Z,58.66
2018-07-15T07:20:07.160Z,59.71
2018-07-15T07:22:36.290Z,58.66
2018-07-15T07:25:04.963Z,57.14
2018-07-15T07:27:33.541Z,56.56
2018-07-15T07:30:02.125Z,56.79
2018-07-15T07:32:30.797Z,56.60
2018-07-15T07:34:59.234Z,56.84
2018-07-15T07:37:27.831Z,56.57
2018-07-15T07:39:56.459Z,57.26
2018-07-15T07:42:25.067Z,56.54
2018-07-15T07:44:53.641Z,55.24
2018-07-15T07:47:22.334Z,55.40
2018-07-15T07:49:50.867Z,56.48
2018-07-15T07:52:19.415Z,55.94
2018-07-15T07:54:47.954Z,55.95
2018-07-15T07:57:16.449Z,54.91
2018-07-15T07:59:44.988Z,54.35
2018-07-15T08:02:13.721Z,53.65
2018-07-15T08:04:42.590Z,54.16
2018-07-15T08:07:11.325Z,53.30
2018-07-15T08:09:40.033Z,54.12
2018-07-15T08:12:08.558Z,52.66
2018-07-15T08:14:37.025Z,52.48
2018-07-15T08:17:05.490Z,51.76
2018-07-15T08:19:34.020Z,50.13
2018-07-15T08:22:02.600Z,51.04
2018-07-15T08:24:31.023Z,50.81
2018-07-15T08:26:59.523Z,50.67
2018-07-15T08:29:28.083Z,51.53
2018-07-15T08:31:56.562Z,50.88
2018-07-15T08:34:25.067Z,50.12
2018-07-15T08:36:53.534Z,50.33
2018-07-15T08:39:22.235Z,51.04
2018-07-15T08:41:50.714Z,49.57
2018-07-15T08:44:19.219Z,49.37
2018-07-15T08:46:47.650Z,46.61
2018-07-15T08:49:16.177Z,45.52
2018-07-15T08:51:44.629Z,45.47
2018-07-15T08:54:13.275Z,44.78
2018-07-15T08:56:42.048Z,44.82
2018-07-15T08:59:10.530Z,43.77
2018-07-15T09:01:39.014Z,44.75
2018-07-15T09:04:07.564Z,44.33
2018-07-15T09:06:36.060Z,44.45
2018-07-15T09:09:04.998Z,42.18
2018-07-15T09:11:33.541Z,42.65
2018-07-15T09:14:02.198Z,43.18
2018-07-15T09:16:30.895Z,42.87
2018-07-15T09:18:59.410Z,43.19
2018-07-15T09:21:27.970Z,42.62
2018-07-15T09:23:56.616Z,42.59
2018-07-15T09:26:25.198Z,39.52
2018-07-15T09:28:53.728Z,39.04
2018-07-15T09:31:22.164Z,39.42
2018-07-15T09:33:50.783Z,37.28
2018-07-15T09:36:19.364Z,36.08
2018-07-15T09:38:47.850Z,35.31
2018-07-15T09:41:16.318Z,35.45
2018-07-15T09:43:44.850Z,35.14
2018-07-15T09:46:13.312Z,35.71
2018-07-15T09:48:41.761Z,33.94
2018-07-15T09:51:10.253Z,34.36
2018-07-15T09:53:38.771Z,31.94
2018-07-15T09:56:07.423Z,30.55
2018-07-15T09:58:36.047Z,30.62
2018-07-15T10:01:04.563Z,30.11
2018-07-15T10:03:33.043Z,30.44
2018-07-15T10:06:01.575Z,28.81
2018-07-15T10:08:30.119Z,27.56
2018-07-15T10:10:58.681Z,28.56
2018-07-15T10:13:27.347Z,28.55
2018-07-15T10:15:55.846Z,27.33
2018-07-15T10:18:24.363Z,26.27
2018-07-15T10:20:52.908Z,26.35
2018-07-15T10:23:25.443Z,25.66
2018-07-15T10:25:54.114Z,26.30
2018-07-15T10:28:22.606Z,24.38
2018-07-15T10:30:51.105Z,24.76
2018-07-15T10:33:19.695Z,25.79
2018-07-15T10:35:48.051Z,25.48
2018-07-15T10:38:16.535Z,26.13
2018-07-15T10:40:45.002Z,25.70
2018-07-15T10:43:13.643Z,26.37
2018-07-15T10:45:42.281Z,25.82
2018-07-15T10:48:10.904Z,25.05
2018-07-15T10:50:39.452Z,23.71
2018-07-15T10:53:09.022Z,23.35
2018-07-15T10:55:37.588Z,23.28
2018-07-15T10:58:06.242Z,23.44
2018-07-15T11:00:34.715Z,23.42
2018-07-15T11:03:03.178Z,23.17
2018-07-15T11:05:31.678Z,21.80
2018-07-15T11:08:00.239Z,22.90
2018-07-15T11:10:28.985Z,21.33
2018-07-15T11:12:57.682Z,20.75
2018-07-15T11:15:26.296Z,20.03
2018-07-15T11:17:55.079Z,17.50
2018-07-15T11:20:23.709Z,18.95
2018-07-15T11:22:52.340Z,17.75
2018-07-15T11:25:20.866Z,19.04
2018-07-15T11:27:49.491Z,18.01
2018-07-15T11:30:17.970Z,18.92
2018-07-15T11:32:46.462Z,16.90
2018-07-15T11:35:15.052Z,16.81
2018-07-15T11:37:43.839Z,17.11
2018-07-15T11:40:12.347Z,18.10
2018-07-15T11:42:40.975Z,17.81
2018-07-15T11:45:09.487Z,16.99
2018-07-15T11:47:38.068Z,18.10
2018-07-15T11:50:07.067Z,16.64
2018-07-15T11:52:35.556Z,17.40
2018-07-15T11:55:04.251Z,15.41
2018-07-15T11:57:32.818Z,16.46
2018-07-15T12:00:01.415Z,15.50
2018-07-15T12:02:29.983Z,15.73
2018-07-15T12:04:58.444Z,15.02
2018-07-15T12:07:27.015Z,14.45
2018-07-15T12:09:55.483Z,14.95
2018-07-15T12:12:23.970Z,15.53
2018-07-15T12:14:52.622Z,15.20
2018-07-15T12:17:21.144Z,12.63
2018-07-15T12:19:50.016Z,14.15
2018-07-15T12:22:18.857Z,13.01
2018-07-15T12:24:48.400Z,11.91
2018-07-15T12:27:16.947Z,12.74
2018-07-15T12:29:45.580Z,12.11
2018-07-15T12:32:14.491Z,13.90
2018-07-15T12:34:43.031Z,13.70
2018-07-15T12:37:11.718Z,14.16
2018-07-15T12:39:40.592Z,12.21
2018-07-15T12:42:09.282Z,12.43
2018-07-15T12:44:37.990Z,12.63
2018-07-15T12:47:06.532Z,12.38
2018-07-15T12:49:35.030Z,15.85
2018-07-15T12:52:03.555Z,18.25
2018-07-15T12:54:32.178Z,19.63
2018-07-15T12:57:00.664Z,20.54
2018-07-15T12:59:29.191Z,21.21
2018-07-15T13:01:57.734Z,20.89
2018-07-15T13:04:26.296Z,21.21
2018-07-15T13:06:54.906Z,21.38
2018-07-15T13:09:23.380Z,22.43
2018-07-15T13:11:55.799Z,28.65
2018-07-15T13:14:24.355Z,32.08
2018-07-15T13:16:52.853Z,31.93
2018-07-15T13:19:21.471Z,32.08
2018-07-15T13:21:50.089Z,32.75
2018-07-15T13:24:19.021Z,32.81
2018-07-15T13:26:47.847Z,30.64
2018-07-15T13:29:16.570Z,32.47
2018-07-15T13:31:45.214Z,34.29
2018-07-15T13:34:13.835Z,35.07
2018-07-15T13:36:42.357Z,36.86
2018-07-15T13:39:11.035Z,36.77
2018-07-15T13:41:40.095Z,35.30
2018-07-15T13:44:08.555Z,34.01
2018-07-15T13:46:37.182Z,33.13
2018-07-15T13:49:05.994Z,35.00
2018-07-15T13:51:34.608Z,49.00
2018-07-15T13:54:03.087Z,54.50
2018-07-15T13:56:31.805Z,51.70
2018-07-15T13:59:00.743Z,52.62
2018-07-15T14:01:29.310Z,50.02
2018-07-15T14:03:57.814Z,49.37
2018-07-15T14:06:26.538Z,47.80
2018-07-15T14:08:55.283Z,40.23
2018-07-15T14:11:23.816Z,29.21
2018-07-15T14:13:52.289Z,29.29
2018-07-15T14:16:21.003Z,35.05
2018-07-15T14:18:49.546Z,37.20
2018-07-15T14:21:18.567Z,39.54
2018-07-15T14:23:47.766Z,40.89
2018-07-15T14:26:16.407Z,43.32
2018-07-15T14:28:44.910Z,45.28
2018-07-15T14:31:13.817Z,46.98
2018-07-15T14:33:42.403Z,46.09
2018-07-15T14:36:10.868Z,44.76
2018-07-15T14:38:39.659Z,44.09
2018-07-15T14:41:08.138Z,43.55
2018-07-15T14:43:36.650Z,44.82
2018-07-15T14:46:05.448Z,46.83
2018-07-15T14:48:33.991Z,46.29
2018-07-15T14:51:02.513Z,46.09
2018-07-15T14:53:31.095Z,44.40
2018-07-15T14:55:59.940Z,43.27
2018-07-15T14:58:28.799Z,41.56
2018-07-15T15:00:57.331Z,39.19
2018-07-15T15:03:25.802Z,36.91
2018-07-15T15:05:54.323Z,33.31
2018-07-15T15:08:22.851Z,29.27
2018-07-15T15:10:51.663Z,27.78
2018-07-15T15:13:20.216Z,26.75
2018-07-15T15:15:49.062Z,25.56
2018-07-15T15:18:18.745Z,24.00
2018-07-15T15:20:47.407Z,26.11
2018-07-15T15:23:15.979Z,29.54
2018-07-15T15:25:44.514Z,31.22
2018-07-15T15:28:13.010Z,31.56
2018-07-15T15:30:41.631Z,32.34
2018-07-15T15:33:10.739Z,34.95
2018-07-15T15:35:39.290Z,38.00
2018-07-15T15:38:07.986Z,39.51
2018-07-15T15:40:36.764Z,41.32
2018-07-15T15:43:05.374Z,42.12
2018-07-15T15:45:34.059Z,43.17
2018-07-15T15:48:02.606Z,43.38
2018-07-15T15:50:31.162Z,43.99
2018-07-15T15:52:59.724Z,44.65
2018-07-15T15:55:28.302Z,43.47
2018-07-15T15:57:56.845Z,43.71
2018-07-15T16:00:25.499Z,46.91
2018-07-15T16:02:54.072Z,47.18
2018-07-15T16:05:22.708Z,46.94
2018-07-15T16:07:51.468Z,46.15
2018-07-15T16:10:19.952Z,45.87
2018-07-15T16:12:48.586Z,46.29
2018-07-15T16:15:17.147Z,48.33
2018-07-15T16:17:45.709Z,52.67
2018-07-15T16:20:14.255Z,54.06
2018-07-15T16:22:42.795Z,56.17
2018-07-15T16:25:11.341Z,58.60
2018-07-15T16:27:39.826Z,63.00
2018-07-15T16:30:08.571Z,66.60
2018-07-15T16:32:37.148Z,71.05
2018-07-15T16:35:05.735Z,75.97
2018-07-15T16:37:34.258Z,79.85
2018-07-15T16:40:02.796Z,83.91
2018-07-15T16:42:31.521Z,83.49
2018-07-15T16:44:59.978Z,81.00
2018-07-15T16:47:28.567Z,78.96
2018-07-15T16:49:57.349Z,77.35
2018-07-15T16:52:25.895Z,78.37
2018-07-15T16:54:54.456Z,77.61
2018-07-15T16:57:22.987Z,72.67
2018-07-15T16:59:51.509Z,78.81
2018-07-15T17:02:19.996Z,77.30
2018-07-15T17:04:48.560Z,80.89
2018-07-15T17:07:17.031Z,83.70
2018-07-15T17:09:45.601Z,85.71
2018-07-15T17:12:14.131Z,87.81
2018-07-15T17:14:42.839Z,85.84
2018-07-15T17:17:11.455Z,88.44
2018-07-15T17:19:39.990Z,84.60
2018-07-15T17:22:08.476Z,87.72
2018-07-15T17:24:36.976Z,88.62
2018-07-15T17:27:05.683Z,86.43
2018-07-15T17:29:34.224Z,86.44
2018-07-15T17:32:02.704Z,86.16
2018-07-15T17:34:31.210Z,86.60
2018-07-15T17:36:59.705Z,85.59
2018-07-15T17:39:28.395Z,87.31
2018-07-15T17:41:56.849Z,86.61
2018-07-15T17:44:25.379Z,84.47
2018-07-15T17:46:53.902Z,90.34
2018-07-15T17:49:22.533Z,90.68
2018-07-15T17:51:51.067Z,89.51
2018-07-15T17:54:19.606Z,86.83
2018-07-15T17:56:48.292Z,89.48
2018-07-15T17:59:16.955Z,88.03
2018-07-15T18:01:45.446Z,87.45
2018-07-15T18:04:13.980Z,85.95
2018-07-15T18:06:42.793Z,84.37
2018-07-15T18:09:11.278Z,84.20
2018-07-15T18:11:39.734Z,85.86
2018-07-15T18:14:08.293Z,86.40
2018-07-15T18:16:37.010Z,86.70
2018-07-15T18:19:05.650Z,85.74
2018-07-15T18:21:34.174Z,85.64
2018-07-15T18:24:02.649Z,86.98
2018-07-15T18:26:31.151Z,86.27
2018-07-15T18:28:59.819Z,85.25
2018-07-15T18:31:28.441Z,87.79
2018-07-15T18:33:56.938Z,89.46
2018-07-15T18:36:25.504Z,89.81
2018-07-15T18:38:54.043Z,88.03
2018-07-15T18:41:22.598Z,83.70
2018-07-15T18:43:51.396Z,88.14
2018-07-15T18:46:19.902Z,92.55
2018-07-15T18:48:48.648Z,93.40
2018-07-15T18:51:17.241Z,94.56
2018-07-15T18:53:45.785Z,92.96
2018-07-15T18:56:14.352Z,93.12
2018-07-15T18:58:43.126Z,95.37
2018-07-15T19:01:11.818Z,96.23
2018-07-15T19:03:40.327Z,96.69
2018-07-15T19:06:09.026Z,98.22
2018-07-15T19:08:37.483Z,100.00
2018-07-15T19:11:06.142Z,100.00
2018-07-15T19:13:34.791Z,98.34
2018-07-15T19:16:03.446Z,98.51
2018-07-15T19:18:31.968Z,97.46
2018-07-15T19:21:00.496Z,97.34
2018-07-15T19:23:29.587Z,98.83
2018-07-15T19:25:58.167Z,99.74
2018-07-15T19:28:27.097Z,100.00
2018-07-15T19:30:55.804Z,100.00
2018-07-15T19:33:24.390Z,100.00
2018-07-15T19:35:53.115Z,98.89
2018-07-15T19:38:21.835Z,98.41
2018-07-15T19:40:50.325Z,98.51
2018-07-15T19:43:18.975Z,99.37
2018-07-15T19:45:47.487Z,98.57
2018-07-15T19:48:15.987Z,98.68
2018-07-15T19:50:44.618Z,97.92
2018-07-15T19:53:13.860Z,97.01
2018-07-15T19:55:42.342Z,98.35
2018-07-15T19:58:11.071Z,98.58
2018-07-15T20:00:39.575Z,98.46
2018-07-15T20:03:08.099Z,96.97
2018-07-15T20:05:36.558Z,96.63
2018-07-15T20:08:05.398Z,91.87
2018-07-15T20:10:34.192Z,93.39
2018-07-15T20:13:02.802Z,92.49
2018-07-15T20:15:31.282Z,92.01
2018-07-15T20:17:59.879Z,92.97
2018-07-15T20:20:28.617Z,92.09
2018-07-15T20:22:57.147Z,92.31
2018-07-15T20:25:25.668Z,92.41
2018-07-15T20:27:54.208Z,93.55
2018-07-15T20:30:22.721Z,94.38
2018-07-15T20:32:51.286Z,95.36
2018-07-15T20:35:19.886Z,93.89
2018-07-15T20:37:48.371Z,94.42
2018-07-15T20:40:16.832Z,92.80
2018-07-15T20:42:45.394Z,94.03
2018-07-15T20:45:13.924Z,95.48
2018-07-15T20:47:42.462Z,92.43
2018-07-15T20:50:10.970Z,92.32
2018-07-15T20:52:39.846Z,92.73
2018-07-15T20:55:08.728Z,93.27
2018-07-15T20:57:37.831Z,94.42
2018-07-15T21:00:06.391Z,93.87
2018-07-15T21:02:35.040Z,93.26
2018-07-15T21:05:03.578Z,93.85
2018-07-15T21:07:32.437Z,93.22
2018-07-15T21:10:01.035Z,93.23
2018-07-15T21:12:30.578Z,93.14
2018-07-15T21:14:59.096Z,91.82
2018-07-15T21:17:28.672Z,89.79
2018-07-15T21:19:57.519Z,90.60
2018-07-15T21:22:26.118Z,91.44
2018-07-15T21:24:54.733Z,92.12
2018-07-15T21:27:23.265Z,91.58
2018-07-15T21:29:51.767Z,92.25
2018-07-15T21:32:20.292Z,93.01
2018-07-15T21:34:48.795Z,93.33
2018-07-15T21:37:17.394Z,94.23
2018-07-15T21:39:45.996Z,94.32
2018-07-15T21:42:14.641Z,94.33
2018-07-15T21:44:43.775Z,95.35
2018-07-15T21:47:12.298Z,95.51
2018-07-15T21:49:40.892Z,95.98
2018-07-15T21:52:09.650Z,97.06
2018-07-15T21:54:38.354Z,94.80
2018-07-15T21:57:06.820Z,93.56
2018-07-15T21:59:35.491Z,92.97
2018-07-15T22:02:04.126Z,92.50
2018-07-15T22:04:32.859Z,91.39
2018-07-15T22:07:12.640Z,92.54
2018-07-15T22:09:53.080Z,91.38
2018-07-15T22:12:21.607Z,91.76
2018-07-15T22:14:50.495Z,90.68
2018-07-15T22:17:20.099Z,90.67
2018-07-15T22:19:48.577Z,90.35
2018-07-15T22:22:17.644Z,91.36
2018-07-15T22:24:46.283Z,90.47
2018-07-15T22:27:14.986Z,91.17
2018-07-15T22:29:43.595Z,90.39
2018-07-15T22:32:12.306Z,91.28
2018-07-15T22:34:41.301Z,92.38
2018-07-15T22:37:09.764Z,92.64
2018-07-15T22:39:38.277Z,91.62
2018-07-15T22:42:06.819Z,91.08
2018-07-15T22:44:35.379Z,89.93
2018-07-15T22:47:04.000Z,89.08
2018-07-15T22:49:32.543Z,89.99
2018-07-15T22:52:01.035Z,90.15
2018-07-15T22:54:29.557Z,88.60
2018-07-15T22:56:57.999Z,89.46
2018-07-15T22:59:26.623Z,89.28
2018-07-15T23:01:55.163Z,89.46
2018-07-15T23:05:33.063Z,90.35
2018-07-15T23:08:01.855Z,92.95
2018-07-15T23:10:30.660Z,95.48
2018-07-15T23:12:59.133Z,95.84
2018-07-15T23:15:27.706Z,95.78
2018-07-15T23:17:56.217Z,96.36
2018-07-15T23:20:25.000Z,95.29
2018-07-15T23:22:53.815Z,95.13
2018-07-15T23:25:22.299Z,94.68
2018-07-15T23:27:50.738Z,94.20
2018-07-15T23:30:19.403Z,93.90
2018-07-15T23:32:48.007Z,93.14
2018-07-15T23:35:17.415Z,93.78
2018-07-15T23:37:46.113Z,93.82
2018-07-15T23:40:14.918Z,93.56
2018-07-15T23:42:43.543Z,94.44
2018-07-15T23:45:12.011Z,94.50
2018-07-15T23:47:40.474Z,95.93
2018-07-15T23:50:08.965Z,95.16
2018-07-15T23:52:37.543Z,95.03
2018-07-15T23:55:06.109Z,94.77
2018-07-15T23:57:34.629Z,95.16
